sensor_id;sensor_type;location;lat;lon;timestamp;P1;durP1;ratioP1;P2;durP2;ratioP2
2211;SDS011;48849;48.758;9.158;2023-08-06T00:01:01;5.67;;;5.00;;
2211;SDS011;48849;48.758;9.158;2023-08-06T00:03:28;5.60;;;4.70;;
2211;SDS011;48849;48.758;9.158;2023-08-06T00:05:54;5.20;;;4.50;;
2211;SDS011;48849;48.758;9.158;2023-08-06T00:08:21;5.60;;;5.03;;
2211;SDS011;48849;48.758;9.158;2023-08-06T00:10:48;5.83;;;4.13;;
2211;SDS011;48849;48.758;9.158;2023-08-06T00:13:15;5.50;;;5.00;;
2211;SDS011;48849;48.758;9.158;2023-08-06T00:15:43;5.47;;;4.87;;
2211;SDS011;48849;48.758;9.158;2023-08-06T00:18:16;10.63;;;4.90;;
2211;SDS011;48849;48.758;9.158;2023-08-06T00:20:43;5.70;;;5.10;;
2211;SDS011;48849;48.758;9.158;2023-08-06T00:23:10;4.53;;;4.13;;
2211;SDS011;48849;48.758;9.158;2023-08-06T00:25:37;4.60;;;4.20;;
2211;SDS011;48849;48.758;9.158;2023-08-06T00:28:03;4.30;;;3.90;;
2211;SDS011;48849;48.758;9.158;2023-08-06T00:30:31;4.40;;;3.67;;
2211;SDS011;48849;48.758;9.158;2023-08-06T00:32:59;4.07;;;3.70;;
2211;SDS011;48849;48.758;9.158;2023-08-06T00:35:26;3.27;;;2.97;;
2211;SDS011;48849;48.758;9.158;2023-08-06T00:37:53;3.80;;;3.50;;
2211;SDS011;48849;48.758;9.158;2023-08-06T00:40:20;4.33;;;3.93;;
2211;SDS011;48849;48.758;9.158;2023-08-06T00:42:47;8.73;;;7.83;;
2211;SDS011;48849;48.758;9.158;2023-08-06T00:45:14;5.30;;;4.80;;
2211;SDS011;48849;48.758;9.158;2023-08-06T00:47:41;5.30;;;4.73;;
2211;SDS011;48849;48.758;9.158;2023-08-06T00:50:10;5.97;;;5.37;;
2211;SDS011;48849;48.758;9.158;2023-08-06T00:52:36;4.60;;;4.20;;
2211;SDS011;48849;48.758;9.158;2023-08-06T00:55:07;4.70;;;4.30;;
2211;SDS011;48849;48.758;9.158;2023-08-06T00:57:36;4.03;;;3.73;;
2211;SDS011;48849;48.758;9.158;2023-08-06T01:00:04;4.68;;;4.28;;
2211;SDS011;48849;48.758;9.158;2023-08-06T01:02:32;3.85;;;3.55;;
2211;SDS011;48849;48.758;9.158;2023-08-06T01:04:59;4.22;;;3.83;;
2211;SDS011;48849;48.758;9.158;2023-08-06T01:07:31;3.80;;;3.42;;
2211;SDS011;48849;48.758;9.158;2023-08-06T01:10:15;5.57;;;4.82;;
2211;SDS011;48849;48.758;9.158;2023-08-06T01:12:51;6.50;;;5.90;;
2211;SDS011;48849;48.758;9.158;2023-08-06T01:15:30;6.78;;;4.75;;
2211;SDS011;48849;48.758;9.158;2023-08-06T01:17:59;3.80;;;3.50;;
2211;SDS011;48849;48.758;9.158;2023-08-06T01:20:29;5.05;;;3.45;;
2211;SDS011;48849;48.758;9.158;2023-08-06T01:23:02;4.38;;;3.97;;
2211;SDS011;48849;48.758;9.158;2023-08-06T01:25:29;7.80;;;4.00;;
2211;SDS011;48849;48.758;9.158;2023-08-06T01:28:00;3.60;;;3.30;;
2211;SDS011;48849;48.758;9.158;2023-08-06T01:30:33;3.60;;;3.30;;
2211;SDS011;48849;48.758;9.158;2023-08-06T01:33:04;4.15;;;3.20;;
2211;SDS011;48849;48.758;9.158;2023-08-06T01:35:32;3.83;;;3.30;;
2211;SDS011;48849;48.758;9.158;2023-08-06T01:38:01;3.17;;;2.97;;
2211;SDS011;48849;48.758;9.158;2023-08-06T01:40:29;4.07;;;3.60;;
2211;SDS011;48849;48.758;9.158;2023-08-06T01:42:57;3.58;;;3.25;;
2211;SDS011;48849;48.758;9.158;2023-08-06T01:45:23;4.05;;;3.13;;
2211;SDS011;48849;48.758;9.158;2023-08-06T01:47:50;3.10;;;2.90;;
2211;SDS011;48849;48.758;9.158;2023-08-06T01:50:17;3.42;;;3.13;;
2211;SDS011;48849;48.758;9.158;2023-08-06T01:52:45;3.88;;;3.30;;
2211;SDS011;48849;48.758;9.158;2023-08-06T01:55:12;4.00;;;3.60;;
2211;SDS011;48849;48.758;9.158;2023-08-06T01:57:38;3.00;;;2.70;;
2211;SDS011;48849;48.758;9.158;2023-08-06T02:00:06;3.95;;;3.20;;
2211;SDS011;48849;48.758;9.158;2023-08-06T02:02:33;3.65;;;3.35;;
2211;SDS011;48849;48.758;9.158;2023-08-06T02:05:00;3.47;;;3.10;;
2211;SDS011;48849;48.758;9.158;2023-08-06T02:07:27;4.05;;;3.22;;
2211;SDS011;48849;48.758;9.158;2023-08-06T02:09:58;3.20;;;2.90;;
2211;SDS011;48849;48.758;9.158;2023-08-06T02:12:25;5.30;;;3.40;;
2211;SDS011;48849;48.758;9.158;2023-08-06T02:14:51;6.75;;;3.63;;
2211;SDS011;48849;48.758;9.158;2023-08-06T02:17:18;5.03;;;3.42;;
2211;SDS011;48849;48.758;9.158;2023-08-06T02:19:45;4.00;;;3.45;;
2211;SDS011;48849;48.758;9.158;2023-08-06T02:22:12;4.30;;;3.67;;
2211;SDS011;48849;48.758;9.158;2023-08-06T02:24:59;5.40;;;4.85;;
2211;SDS011;48849;48.758;9.158;2023-08-06T02:27:26;3.30;;;3.00;;
2211;SDS011;48849;48.758;9.158;2023-08-06T02:29:53;6.72;;;4.50;;
2211;SDS011;48849;48.758;9.158;2023-08-06T02:32:20;5.65;;;4.18;;
2211;SDS011;48849;48.758;9.158;2023-08-06T02:34:46;4.10;;;3.63;;
2211;SDS011;48849;48.758;9.158;2023-08-06T02:37:13;3.83;;;3.08;;
2211;SDS011;48849;48.758;9.158;2023-08-06T02:39:40;4.25;;;3.20;;
2211;SDS011;48849;48.758;9.158;2023-08-06T02:42:08;4.38;;;3.05;;
2211;SDS011;48849;48.758;9.158;2023-08-06T02:44:35;4.00;;;3.70;;
2211;SDS011;48849;48.758;9.158;2023-08-06T02:47:02;4.13;;;3.75;;
2211;SDS011;48849;48.758;9.158;2023-08-06T02:49:29;4.25;;;3.40;;
2211;SDS011;48849;48.758;9.158;2023-08-06T02:51:56;5.63;;;2.90;;
2211;SDS011;48849;48.758;9.158;2023-08-06T02:54:22;4.05;;;3.20;;
2211;SDS011;48849;48.758;9.158;2023-08-06T02:56:49;3.83;;;3.50;;
2211;SDS011;48849;48.758;9.158;2023-08-06T02:59:17;4.65;;;3.90;;
2211;SDS011;48849;48.758;9.158;2023-08-06T03:01:44;3.25;;;2.95;;
2211;SDS011;48849;48.758;9.158;2023-08-06T03:04:11;5.85;;;3.65;;
2211;SDS011;48849;48.758;9.158;2023-08-06T03:06:38;4.65;;;3.40;;
2211;SDS011;48849;48.758;9.158;2023-08-06T03:09:05;5.22;;;3.22;;
2211;SDS011;48849;48.758;9.158;2023-08-06T03:11:31;4.45;;;2.60;;
2211;SDS011;48849;48.758;9.158;2023-08-06T03:13:58;6.03;;;3.28;;
2211;SDS011;48849;48.758;9.158;2023-08-06T03:16:26;3.20;;;2.83;;
2211;SDS011;48849;48.758;9.158;2023-08-06T03:18:53;2.63;;;2.40;;
2211;SDS011;48849;48.758;9.158;2023-08-06T03:21:19;2.65;;;2.45;;
2211;SDS011;48849;48.758;9.158;2023-08-06T03:23:46;3.15;;;2.85;;
2211;SDS011;48849;48.758;9.158;2023-08-06T03:26:13;4.53;;;2.70;;
2211;SDS011;48849;48.758;9.158;2023-08-06T03:28:40;3.20;;;2.28;;
2211;SDS011;48849;48.758;9.158;2023-08-06T03:31:07;3.47;;;2.53;;
2211;SDS011;48849;48.758;9.158;2023-08-06T03:33:35;3.75;;;2.53;;
2211;SDS011;48849;48.758;9.158;2023-08-06T03:36:02;3.97;;;2.50;;
2211;SDS011;48849;48.758;9.158;2023-08-06T03:38:29;4.03;;;3.42;;
2211;SDS011;48849;48.758;9.158;2023-08-06T03:40:56;4.25;;;2.95;;
2211;SDS011;48849;48.758;9.158;2023-08-06T03:43:22;3.10;;;2.60;;
2211;SDS011;48849;48.758;9.158;2023-08-06T03:45:49;6.03;;;3.15;;
2211;SDS011;48849;48.758;9.158;2023-08-06T03:48:16;6.15;;;2.75;;
2211;SDS011;48849;48.758;9.158;2023-08-06T03:50:44;3.88;;;2.60;;
2211;SDS011;48849;48.758;9.158;2023-08-06T03:53:11;3.40;;;2.40;;
2211;SDS011;48849;48.758;9.158;2023-08-06T03:55:37;5.35;;;2.60;;
2211;SDS011;48849;48.758;9.158;2023-08-06T03:58:04;2.63;;;2.42;;
2211;SDS011;48849;48.758;9.158;2023-08-06T04:00:31;4.25;;;2.70;;
2211;SDS011;48849;48.758;9.158;2023-08-06T04:02:57;4.05;;;3.10;;
2211;SDS011;48849;48.758;9.158;2023-08-06T04:05:24;3.42;;;3.05;;
2211;SDS011;48849;48.758;9.158;2023-08-06T04:07:52;3.13;;;2.70;;
2211;SDS011;48849;48.758;9.158;2023-08-06T04:10:19;3.20;;;2.90;;
2211;SDS011;48849;48.758;9.158;2023-08-06T04:12:45;4.57;;;3.70;;
2211;SDS011;48849;48.758;9.158;2023-08-06T04:15:13;3.00;;;2.55;;
2211;SDS011;48849;48.758;9.158;2023-08-06T04:17:39;2.80;;;2.58;;
2211;SDS011;48849;48.758;9.158;2023-08-06T04:20:06;4.35;;;2.25;;
2211;SDS011;48849;48.758;9.158;2023-08-06T04:22:34;3.58;;;2.78;;
2211;SDS011;48849;48.758;9.158;2023-08-06T04:25:02;6.57;;;2.63;;
2211;SDS011;48849;48.758;9.158;2023-08-06T04:27:29;3.15;;;2.65;;
2211;SDS011;48849;48.758;9.158;2023-08-06T04:29:55;2.78;;;2.55;;
2211;SDS011;48849;48.758;9.158;2023-08-06T04:32:22;3.33;;;2.30;;
2211;SDS011;48849;48.758;9.158;2023-08-06T04:34:50;3.05;;;2.75;;
2211;SDS011;48849;48.758;9.158;2023-08-06T04:37:17;3.13;;;2.60;;
2211;SDS011;48849;48.758;9.158;2023-08-06T04:39:43;4.43;;;2.55;;
2211;SDS011;48849;48.758;9.158;2023-08-06T04:42:11;3.22;;;2.92;;
2211;SDS011;48849;48.758;9.158;2023-08-06T04:44:38;3.78;;;2.50;;
2211;SDS011;48849;48.758;9.158;2023-08-06T04:47:05;3.15;;;2.88;;
2211;SDS011;48849;48.758;9.158;2023-08-06T04:49:32;3.30;;;2.70;;
2211;SDS011;48849;48.758;9.158;2023-08-06T04:51:58;3.38;;;2.33;;
2211;SDS011;48849;48.758;9.158;2023-08-06T04:54:25;3.30;;;2.53;;
2211;SDS011;48849;48.758;9.158;2023-08-06T04:56:52;3.55;;;2.90;;
2211;SDS011;48849;48.758;9.158;2023-08-06T04:59:20;4.57;;;2.25;;
2211;SDS011;48849;48.758;9.158;2023-08-06T05:01:46;2.65;;;2.10;;
2211;SDS011;48849;48.758;9.158;2023-08-06T05:04:13;3.65;;;1.85;;
2211;SDS011;48849;48.758;9.158;2023-08-06T05:06:40;2.63;;;1.98;;
2211;SDS011;48849;48.758;9.158;2023-08-06T05:09:07;2.83;;;1.88;;
2211;SDS011;48849;48.758;9.158;2023-08-06T05:11:33;4.95;;;2.22;;
2211;SDS011;48849;48.758;9.158;2023-08-06T05:14:00;3.35;;;2.10;;
2211;SDS011;48849;48.758;9.158;2023-08-06T05:16:28;3.05;;;1.60;;
2211;SDS011;48849;48.758;9.158;2023-08-06T05:18:55;3.88;;;1.98;;
2211;SDS011;48849;48.758;9.158;2023-08-06T05:21:22;3.75;;;2.05;;
2211;SDS011;48849;48.758;9.158;2023-08-06T05:23:48;2.75;;;1.65;;
2211;SDS011;48849;48.758;9.158;2023-08-06T05:26:15;3.67;;;2.00;;
2211;SDS011;48849;48.758;9.158;2023-08-06T05:28:44;3.28;;;1.73;;
2211;SDS011;48849;48.758;9.158;2023-08-06T05:31:11;2.80;;;1.98;;
2211;SDS011;48849;48.758;9.158;2023-08-06T05:33:39;2.75;;;2.00;;
2211;SDS011;48849;48.758;9.158;2023-08-06T05:36:06;1.88;;;1.63;;
2211;SDS011;48849;48.758;9.158;2023-08-06T05:38:32;2.72;;;1.85;;
2211;SDS011;48849;48.758;9.158;2023-08-06T05:40:59;3.33;;;2.22;;
2211;SDS011;48849;48.758;9.158;2023-08-06T05:43:26;2.35;;;1.90;;
2211;SDS011;48849;48.758;9.158;2023-08-06T05:45:53;4.28;;;1.80;;
2211;SDS011;48849;48.758;9.158;2023-08-06T05:48:19;2.05;;;1.75;;
2211;SDS011;48849;48.758;9.158;2023-08-06T05:50:49;1.70;;;1.33;;
2211;SDS011;48849;48.758;9.158;2023-08-06T05:53:15;5.63;;;2.70;;
2211;SDS011;48849;48.758;9.158;2023-08-06T05:55:42;4.65;;;1.70;;
2211;SDS011;48849;48.758;9.158;2023-08-06T05:58:09;1.80;;;1.15;;
2211;SDS011;48849;48.758;9.158;2023-08-06T06:00:36;4.22;;;1.75;;
2211;SDS011;48849;48.758;9.158;2023-08-06T06:03:03;2.50;;;2.08;;
2211;SDS011;48849;48.758;9.158;2023-08-06T06:05:29;3.33;;;2.50;;
2211;SDS011;48849;48.758;9.158;2023-08-06T06:07:57;6.50;;;3.40;;
2211;SDS011;48849;48.758;9.158;2023-08-06T06:10:24;4.07;;;1.60;;
2211;SDS011;48849;48.758;9.158;2023-08-06T06:12:51;4.22;;;3.38;;
2211;SDS011;48849;48.758;9.158;2023-08-06T06:15:18;1.70;;;1.60;;
2211;SDS011;48849;48.758;9.158;2023-08-06T06:17:44;4.45;;;2.90;;
2211;SDS011;48849;48.758;9.158;2023-08-06T06:20:11;3.10;;;2.38;;
2211;SDS011;48849;48.758;9.158;2023-08-06T06:22:38;2.40;;;1.38;;
2211;SDS011;48849;48.758;9.158;2023-08-06T06:25:06;1.77;;;0.90;;
2211;SDS011;48849;48.758;9.158;2023-08-06T06:27:34;1.88;;;1.15;;
2211;SDS011;48849;48.758;9.158;2023-08-06T06:30:01;1.35;;;0.90;;
2211;SDS011;48849;48.758;9.158;2023-08-06T06:32:29;2.13;;;0.95;;
2211;SDS011;48849;48.758;9.158;2023-08-06T06:34:55;1.30;;;1.08;;
2211;SDS011;48849;48.758;9.158;2023-08-06T06:37:23;4.40;;;1.75;;
2211;SDS011;48849;48.758;9.158;2023-08-06T06:39:50;1.70;;;1.20;;
2211;SDS011;48849;48.758;9.158;2023-08-06T06:42:18;4.50;;;2.38;;
2211;SDS011;48849;48.758;9.158;2023-08-06T06:44:45;1.95;;;1.40;;
2211;SDS011;48849;48.758;9.158;2023-08-06T06:47:12;2.13;;;1.33;;
2211;SDS011;48849;48.758;9.158;2023-08-06T06:49:38;2.20;;;1.20;;
2211;SDS011;48849;48.758;9.158;2023-08-06T06:52:05;2.35;;;0.90;;
2211;SDS011;48849;48.758;9.158;2023-08-06T06:54:32;2.60;;;1.13;;
2211;SDS011;48849;48.758;9.158;2023-08-06T06:56:59;1.85;;;0.90;;
2211;SDS011;48849;48.758;9.158;2023-08-06T06:59:27;1.95;;;1.52;;
2211;SDS011;48849;48.758;9.158;2023-08-06T07:01:54;1.75;;;1.38;;
2211;SDS011;48849;48.758;9.158;2023-08-06T07:04:21;4.47;;;2.20;;
2211;SDS011;48849;48.758;9.158;2023-08-06T07:06:47;4.25;;;1.92;;
2211;SDS011;48849;48.758;9.158;2023-08-06T07:09:14;2.65;;;1.60;;
2211;SDS011;48849;48.758;9.158;2023-08-06T07:11:41;2.97;;;1.25;;
2211;SDS011;48849;48.758;9.158;2023-08-06T07:14:09;2.75;;;1.45;;
2211;SDS011;48849;48.758;9.158;2023-08-06T07:16:37;3.22;;;2.80;;
2211;SDS011;48849;48.758;9.158;2023-08-06T07:19:04;2.22;;;1.23;;
2211;SDS011;48849;48.758;9.158;2023-08-06T07:21:31;2.47;;;1.53;;
2211;SDS011;48849;48.758;9.158;2023-08-06T07:23:57;1.13;;;0.82;;
2211;SDS011;48849;48.758;9.158;2023-08-06T07:26:25;1.27;;;0.83;;
2211;SDS011;48849;48.758;9.158;2023-08-06T07:28:51;1.00;;;0.80;;
2211;SDS011;48849;48.758;9.158;2023-08-06T07:31:18;5.28;;;2.45;;
2211;SDS011;48849;48.758;9.158;2023-08-06T07:33:46;1.35;;;0.80;;
2211;SDS011;48849;48.758;9.158;2023-08-06T07:36:13;3.58;;;1.50;;
2211;SDS011;48849;48.758;9.158;2023-08-06T07:38:41;1.50;;;1.15;;
2211;SDS011;48849;48.758;9.158;2023-08-06T07:41:08;1.50;;;0.93;;
2211;SDS011;48849;48.758;9.158;2023-08-06T07:43:34;1.60;;;1.00;;
2211;SDS011;48849;48.758;9.158;2023-08-06T07:46:02;1.02;;;0.60;;
2211;SDS011;48849;48.758;9.158;2023-08-06T07:48:28;1.70;;;1.00;;
2211;SDS011;48849;48.758;9.158;2023-08-06T07:50:57;1.63;;;0.70;;
2211;SDS011;48849;48.758;9.158;2023-08-06T07:53:24;0.90;;;0.52;;
2211;SDS011;48849;48.758;9.158;2023-08-06T07:55:54;1.30;;;0.80;;
2211;SDS011;48849;48.758;9.158;2023-08-06T07:58:22;0.90;;;0.60;;
2211;SDS011;48849;48.758;9.158;2023-08-06T08:00:50;0.93;;;0.68;;
2211;SDS011;48849;48.758;9.158;2023-08-06T08:03:17;0.90;;;0.60;;
2211;SDS011;48849;48.758;9.158;2023-08-06T08:05:44;0.80;;;0.43;;
2211;SDS011;48849;48.758;9.158;2023-08-06T08:08:15;0.70;;;0.47;;
2211;SDS011;48849;48.758;9.158;2023-08-06T08:10:41;3.22;;;0.47;;
2211;SDS011;48849;48.758;9.158;2023-08-06T08:13:08;0.73;;;0.50;;
2211;SDS011;48849;48.758;9.158;2023-08-06T08:15:35;1.00;;;0.50;;
2211;SDS011;48849;48.758;9.158;2023-08-06T08:18:02;1.10;;;0.45;;
2211;SDS011;48849;48.758;9.158;2023-08-06T08:20:29;0.82;;;0.40;;
2211;SDS011;48849;48.758;9.158;2023-08-06T08:22:57;0.60;;;0.40;;
2211;SDS011;48849;48.758;9.158;2023-08-06T08:25:26;0.50;;;0.30;;
2211;SDS011;48849;48.758;9.158;2023-08-06T08:27:53;0.70;;;0.40;;
2211;SDS011;48849;48.758;9.158;2023-08-06T08:30:21;0.60;;;0.40;;
2211;SDS011;48849;48.758;9.158;2023-08-06T08:32:49;1.27;;;0.50;;
2211;SDS011;48849;48.758;9.158;2023-08-06T08:35:17;0.80;;;0.40;;
2211;SDS011;48849;48.758;9.158;2023-08-06T08:37:43;2.80;;;0.67;;
2211;SDS011;48849;48.758;9.158;2023-08-06T08:40:10;0.60;;;0.40;;
2211;SDS011;48849;48.758;9.158;2023-08-06T08:42:38;0.60;;;0.40;;
2211;SDS011;48849;48.758;9.158;2023-08-06T08:45:06;1.15;;;0.50;;
2211;SDS011;48849;48.758;9.158;2023-08-06T08:47:39;0.80;;;0.55;;
2211;SDS011;48849;48.758;9.158;2023-08-06T08:50:08;0.60;;;0.50;;
2211;SDS011;48849;48.758;9.158;2023-08-06T08:52:36;0.68;;;0.30;;
2211;SDS011;48849;48.758;9.158;2023-08-06T08:55:05;1.23;;;0.43;;
2211;SDS011;48849;48.758;9.158;2023-08-06T08:57:34;0.73;;;0.32;;
2211;SDS011;48849;48.758;9.158;2023-08-06T09:00:02;0.70;;;0.40;;
2211;SDS011;48849;48.758;9.158;2023-08-06T09:02:29;0.83;;;0.47;;
2211;SDS011;48849;48.758;9.158;2023-08-06T09:04:59;0.75;;;0.40;;
2211;SDS011;48849;48.758;9.158;2023-08-06T09:07:28;0.70;;;0.40;;
2211;SDS011;48849;48.758;9.158;2023-08-06T09:09:58;0.90;;;0.30;;
2211;SDS011;48849;48.758;9.158;2023-08-06T09:12:28;1.63;;;0.40;;
2211;SDS011;48849;48.758;9.158;2023-08-06T09:14:55;0.60;;;0.40;;
2211;SDS011;48849;48.758;9.158;2023-08-06T09:17:23;0.60;;;0.30;;
2211;SDS011;48849;48.758;9.158;2023-08-06T09:19:50;0.70;;;0.40;;
2211;SDS011;48849;48.758;9.158;2023-08-06T09:22:17;0.90;;;0.37;;
2211;SDS011;48849;48.758;9.158;2023-08-06T09:24:43;0.50;;;0.30;;
2211;SDS011;48849;48.758;9.158;2023-08-06T09:27:11;0.87;;;0.40;;
2211;SDS011;48849;48.758;9.158;2023-08-06T09:29:41;1.27;;;0.30;;
2211;SDS011;48849;48.758;9.158;2023-08-06T09:32:10;0.60;;;0.32;;
2211;SDS011;48849;48.758;9.158;2023-08-06T09:34:39;0.50;;;0.30;;
2211;SDS011;48849;48.758;9.158;2023-08-06T09:37:08;0.50;;;0.30;;
2211;SDS011;48849;48.758;9.158;2023-08-06T09:39:37;0.60;;;0.40;;
2211;SDS011;48849;48.758;9.158;2023-08-06T09:42:04;0.57;;;0.35;;
2211;SDS011;48849;48.758;9.158;2023-08-06T09:44:32;0.75;;;0.38;;
2211;SDS011;48849;48.758;9.158;2023-08-06T09:47:00;0.60;;;0.40;;
2211;SDS011;48849;48.758;9.158;2023-08-06T09:49:28;0.70;;;0.30;;
2211;SDS011;48849;48.758;9.158;2023-08-06T09:52:10;0.70;;;0.40;;
2211;SDS011;48849;48.758;9.158;2023-08-06T09:54:38;0.77;;;0.40;;
2211;SDS011;48849;48.758;9.158;2023-08-06T09:57:05;0.70;;;0.40;;
2211;SDS011;48849;48.758;9.158;2023-08-06T09:59:32;0.80;;;0.43;;
2211;SDS011;48849;48.758;9.158;2023-08-06T10:02:00;0.60;;;0.40;;
2211;SDS011;48849;48.758;9.158;2023-08-06T10:04:28;0.90;;;0.30;;
2211;SDS011;48849;48.758;9.158;2023-08-06T10:06:57;1.20;;;0.40;;
2211;SDS011;48849;48.758;9.158;2023-08-06T10:09:25;0.50;;;0.40;;
2211;SDS011;48849;48.758;9.158;2023-08-06T10:11:52;0.70;;;0.40;;
2211;SDS011;48849;48.758;9.158;2023-08-06T10:14:21;0.75;;;0.38;;
2211;SDS011;48849;48.758;9.158;2023-08-06T10:16:51;0.95;;;0.40;;
2211;SDS011;48849;48.758;9.158;2023-08-06T10:19:19;1.35;;;0.60;;
2211;SDS011;48849;48.758;9.158;2023-08-06T10:24:45;1.08;;;0.50;;
2211;SDS011;48849;48.758;9.158;2023-08-06T10:27:13;0.87;;;0.40;;
2211;SDS011;48849;48.758;9.158;2023-08-06T10:29:39;1.20;;;0.50;;
2211;SDS011;48849;48.758;9.158;2023-08-06T10:32:06;0.70;;;0.52;;
2211;SDS011;48849;48.758;9.158;2023-08-06T10:37:23;1.10;;;0.80;;
2211;SDS011;48849;48.758;9.158;2023-08-06T10:39:50;0.70;;;0.50;;
2211;SDS011;48849;48.758;9.158;2023-08-06T10:42:21;1.17;;;0.40;;
2211;SDS011;48849;48.758;9.158;2023-08-06T10:47:37;0.85;;;0.50;;
2211;SDS011;48849;48.758;9.158;2023-08-06T10:50:04;0.70;;;0.50;;
2211;SDS011;48849;48.758;9.158;2023-08-06T10:52:34;0.80;;;0.40;;
2211;SDS011;48849;48.758;9.158;2023-08-06T10:55:01;0.83;;;0.57;;
2211;SDS011;48849;48.758;9.158;2023-08-06T10:57:28;0.65;;;0.50;;
2211;SDS011;48849;48.758;9.158;2023-08-06T10:59:55;0.77;;;0.57;;
2211;SDS011;48849;48.758;9.158;2023-08-06T11:02:21;1.20;;;0.60;;
2211;SDS011;48849;48.758;9.158;2023-08-06T11:04:48;1.50;;;0.75;;
2211;SDS011;48849;48.758;9.158;2023-08-06T11:07:15;1.25;;;0.60;;
2211;SDS011;48849;48.758;9.158;2023-08-06T11:09:43;0.80;;;0.40;;
2211;SDS011;48849;48.758;9.158;2023-08-06T11:12:10;0.88;;;0.47;;
2211;SDS011;48849;48.758;9.158;2023-08-06T11:14:37;0.50;;;0.30;;
2211;SDS011;48849;48.758;9.158;2023-08-06T11:17:04;0.73;;;0.60;;
2211;SDS011;48849;48.758;9.158;2023-08-06T11:19:31;2.03;;;1.80;;
2211;SDS011;48849;48.758;9.158;2023-08-06T11:21:58;1.53;;;1.43;;
2211;SDS011;48849;48.758;9.158;2023-08-06T11:24:26;1.00;;;0.73;;
2211;SDS011;48849;48.758;9.158;2023-08-06T11:26:54;0.97;;;0.60;;
2211;SDS011;48849;48.758;9.158;2023-08-06T11:29:21;1.73;;;0.60;;
2211;SDS011;48849;48.758;9.158;2023-08-06T11:31:49;2.30;;;0.80;;
2211;SDS011;48849;48.758;9.158;2023-08-06T11:34:15;0.93;;;0.80;;
2211;SDS011;48849;48.758;9.158;2023-08-06T11:36:42;0.90;;;0.50;;
2211;SDS011;48849;48.758;9.158;2023-08-06T11:39:09;1.00;;;0.73;;
2211;SDS011;48849;48.758;9.158;2023-08-06T11:41:36;0.80;;;0.60;;
2211;SDS011;48849;48.758;9.158;2023-08-06T11:44:06;2.50;;;1.43;;
2211;SDS011;48849;48.758;9.158;2023-08-06T11:46:49;0.83;;;0.83;;
2211;SDS011;48849;48.758;9.158;2023-08-06T11:49:17;1.33;;;1.00;;
2211;SDS011;48849;48.758;9.158;2023-08-06T11:51:46;1.27;;;0.80;;
2211;SDS011;48849;48.758;9.158;2023-08-06T11:54:13;0.80;;;0.60;;
2211;SDS011;48849;48.758;9.158;2023-08-06T11:56:40;2.72;;;2.38;;
2211;SDS011;48849;48.758;9.158;2023-08-06T11:59:08;1.57;;;0.90;;
2211;SDS011;48849;48.758;9.158;2023-08-06T12:01:35;0.82;;;0.70;;
2211;SDS011;48849;48.758;9.158;2023-08-06T12:04:04;1.40;;;1.00;;
2211;SDS011;48849;48.758;9.158;2023-08-06T12:06:31;1.38;;;0.90;;
2211;SDS011;48849;48.758;9.158;2023-08-06T12:09:08;3.25;;;1.20;;
2211;SDS011;48849;48.758;9.158;2023-08-06T12:11:36;1.30;;;1.10;;
2211;SDS011;48849;48.758;9.158;2023-08-06T12:14:02;1.50;;;0.93;;
2211;SDS011;48849;48.758;9.158;2023-08-06T12:16:30;1.40;;;1.10;;
2211;SDS011;48849;48.758;9.158;2023-08-06T12:18:57;1.30;;;1.10;;
2211;SDS011;48849;48.758;9.158;2023-08-06T12:21:24;1.40;;;1.05;;
2211;SDS011;48849;48.758;9.158;2023-08-06T12:23:51;1.38;;;1.02;;
2211;SDS011;48849;48.758;9.158;2023-08-06T12:26:17;1.33;;;0.90;;
2211;SDS011;48849;48.758;9.158;2023-08-06T12:28:44;2.25;;;1.05;;
2211;SDS011;48849;48.758;9.158;2023-08-06T12:31:11;1.52;;;1.17;;
2211;SDS011;48849;48.758;9.158;2023-08-06T12:33:39;1.88;;;0.80;;
2211;SDS011;48849;48.758;9.158;2023-08-06T12:36:06;1.30;;;1.00;;
2211;SDS011;48849;48.758;9.158;2023-08-06T12:38:32;6.10;;;1.10;;
2211;SDS011;48849;48.758;9.158;2023-08-06T12:40:59;1.20;;;1.00;;
2211;SDS011;48849;48.758;9.158;2023-08-06T12:43:26;1.98;;;1.10;;
2211;SDS011;48849;48.758;9.158;2023-08-06T12:45:53;1.10;;;1.00;;
2211;SDS011;48849;48.758;9.158;2023-08-06T12:48:19;0.93;;;0.75;;
2211;SDS011;48849;48.758;9.158;2023-08-06T12:50:47;4.47;;;2.60;;
2211;SDS011;48849;48.758;9.158;2023-08-06T12:53:14;1.55;;;1.23;;
2211;SDS011;48849;48.758;9.158;2023-08-06T12:55:41;1.70;;;1.00;;
2211;SDS011;48849;48.758;9.158;2023-08-06T12:58:08;2.60;;;1.50;;
2211;SDS011;48849;48.758;9.158;2023-08-06T13:00:35;3.63;;;1.07;;
2211;SDS011;48849;48.758;9.158;2023-08-06T13:03:02;1.15;;;0.90;;
2211;SDS011;48849;48.758;9.158;2023-08-06T13:05:29;1.17;;;0.80;;
2211;SDS011;48849;48.758;9.158;2023-08-06T13:07:57;1.77;;;1.05;;
2211;SDS011;48849;48.758;9.158;2023-08-06T13:10:24;1.38;;;1.05;;
2211;SDS011;48849;48.758;9.158;2023-08-06T13:12:52;1.88;;;0.80;;
2211;SDS011;48849;48.758;9.158;2023-08-06T13:15:19;1.23;;;0.90;;
2211;SDS011;48849;48.758;9.158;2023-08-06T13:17:47;1.60;;;0.90;;
2211;SDS011;48849;48.758;9.158;2023-08-06T13:20:13;1.27;;;0.87;;
2211;SDS011;48849;48.758;9.158;2023-08-06T13:22:40;3.00;;;1.20;;
2211;SDS011;48849;48.758;9.158;2023-08-06T13:25:08;1.80;;;1.15;;
2211;SDS011;48849;48.758;9.158;2023-08-06T13:27:35;1.27;;;1.17;;
2211;SDS011;48849;48.758;9.158;2023-08-06T13:30:02;1.43;;;1.13;;
2211;SDS011;48849;48.758;9.158;2023-08-06T13:32:29;1.40;;;0.88;;
2211;SDS011;48849;48.758;9.158;2023-08-06T13:34:57;2.38;;;1.05;;
2211;SDS011;48849;48.758;9.158;2023-08-06T13:37:24;5.73;;;1.20;;
2211;SDS011;48849;48.758;9.158;2023-08-06T13:39:51;2.28;;;1.10;;
2211;SDS011;48849;48.758;9.158;2023-08-06T13:42:19;1.38;;;0.93;;
2211;SDS011;48849;48.758;9.158;2023-08-06T13:44:45;1.27;;;0.80;;
2211;SDS011;48849;48.758;9.158;2023-08-06T13:47:12;1.03;;;0.80;;
2211;SDS011;48849;48.758;9.158;2023-08-06T13:49:39;1.20;;;0.70;;
2211;SDS011;48849;48.758;9.158;2023-08-06T13:52:06;1.77;;;1.43;;
2211;SDS011;48849;48.758;9.158;2023-08-06T13:54:32;2.83;;;1.27;;
2211;SDS011;48849;48.758;9.158;2023-08-06T13:56:59;1.83;;;0.80;;
2211;SDS011;48849;48.758;9.158;2023-08-06T13:59:27;1.10;;;0.83;;
2211;SDS011;48849;48.758;9.158;2023-08-06T14:01:54;3.80;;;0.70;;
2211;SDS011;48849;48.758;9.158;2023-08-06T14:04:24;1.20;;;0.90;;
2211;SDS011;48849;48.758;9.158;2023-08-06T14:06:51;1.50;;;0.77;;
2211;SDS011;48849;48.758;9.158;2023-08-06T14:09:18;1.33;;;1.00;;
2211;SDS011;48849;48.758;9.158;2023-08-06T14:11:45;0.80;;;0.70;;
2211;SDS011;48849;48.758;9.158;2023-08-06T14:14:11;0.90;;;0.73;;
2211;SDS011;48849;48.758;9.158;2023-08-06T14:16:42;0.80;;;0.70;;
2211;SDS011;48849;48.758;9.158;2023-08-06T14:19:09;4.03;;;1.10;;
2211;SDS011;48849;48.758;9.158;2023-08-06T14:21:35;0.90;;;0.80;;
2211;SDS011;48849;48.758;9.158;2023-08-06T14:24:03;2.27;;;1.00;;
2211;SDS011;48849;48.758;9.158;2023-08-06T14:26:30;1.30;;;0.90;;
2211;SDS011;48849;48.758;9.158;2023-08-06T14:28:57;1.20;;;0.70;;
2211;SDS011;48849;48.758;9.158;2023-08-06T14:31:24;1.30;;;0.80;;
2211;SDS011;48849;48.758;9.158;2023-08-06T14:33:52;1.27;;;0.97;;
2211;SDS011;48849;48.758;9.158;2023-08-06T14:36:18;3.63;;;0.90;;
2211;SDS011;48849;48.758;9.158;2023-08-06T14:38:45;0.90;;;0.70;;
2211;SDS011;48849;48.758;9.158;2023-08-06T14:41:12;2.20;;;0.90;;
2211;SDS011;48849;48.758;9.158;2023-08-06T14:43:39;1.63;;;0.97;;
2211;SDS011;48849;48.758;9.158;2023-08-06T14:46:06;1.83;;;1.02;;
2211;SDS011;48849;48.758;9.158;2023-08-06T14:48:32;1.10;;;0.70;;
2211;SDS011;48849;48.758;9.158;2023-08-06T14:51:08;1.73;;;0.87;;
2211;SDS011;48849;48.758;9.158;2023-08-06T14:53:44;0.90;;;0.70;;
2211;SDS011;48849;48.758;9.158;2023-08-06T14:56:11;4.22;;;0.90;;
2211;SDS011;48849;48.758;9.158;2023-08-06T14:58:43;1.97;;;1.33;;
2211;SDS011;48849;48.758;9.158;2023-08-06T15:01:24;2.30;;;1.90;;
2211;SDS011;48849;48.758;9.158;2023-08-06T15:04:01;1.00;;;0.80;;
2211;SDS011;48849;48.758;9.158;2023-08-06T15:06:34;0.80;;;0.60;;
2211;SDS011;48849;48.758;9.158;2023-08-06T15:09:09;1.48;;;1.08;;
2211;SDS011;48849;48.758;9.158;2023-08-06T15:11:47;2.07;;;0.90;;